createdAt,value
2018-09-24T00:00:40.326Z,69.20
2018-09-24T00:03:07.706Z,66.20
2018-09-24T00:05:35.153Z,64.50
2018-09-24T00:08:02.580Z,61.90
2018-09-24T00:10:29.976Z,62.60
2018-09-24T00:12:57.409Z,60.90
2018-09-24T00:15:24.884Z,60.80
2018-09-24T00:17:52.278Z,61.40
2018-09-24T00:20:19.729Z,61.60
2018-09-24T00:22:47.154Z,60.60
2018-09-24T00:25:14.620Z,61.40
2018-09-24T00:27:42.033Z,61.50
2018-09-24T00:30:09.424Z,60.10
2018-09-24T00:32:36.819Z,61.60
2018-09-24T00:35:04.256Z,61.10
2018-09-24T00:37:31.662Z,61.40
2018-09-24T00:39:59.046Z,61.70
2018-09-24T00:42:26.504Z,61.30
2018-09-24T00:44:53.887Z,61.60
2018-09-24T00:47:21.351Z,61.50
2018-09-24T00:49:48.713Z,60.90
2018-09-24T00:52:16.216Z,60.60
2018-09-24T00:54:43.645Z,60.90
2018-09-24T00:57:11.036Z,61.50
2018-09-24T00:59:38.470Z,61.50
2018-09-24T01:02:05.921Z,62.10
2018-09-24T01:04:39.979Z,62.10
2018-09-24T01:07:07.435Z,61.70
2018-09-24T01:09:34.910Z,61.90
2018-09-24T01:12:02.368Z,62.30
2018-09-24T01:14:30.029Z,62.10
2018-09-24T01:16:57.474Z,62.10
2018-09-24T01:19:24.884Z,62.40
2018-09-24T01:21:52.364Z,62.40
2018-09-24T01:24:19.825Z,63.20
2018-09-24T01:26:47.285Z,63.10
2018-09-24T01:29:14.702Z,63.50
2018-09-24T01:31:42.184Z,63.70
2018-09-24T01:34:09.660Z,64.30
2018-09-24T01:36:37.080Z,64.70
2018-09-24T01:39:05.744Z,64.60
2018-09-24T01:41:33.204Z,64.70
2018-09-24T01:44:00.642Z,64.50
2018-09-24T01:46:28.080Z,64.60
2018-09-24T01:48:55.427Z,64.70
2018-09-24T01:51:29.797Z,64.40
2018-09-24T01:53:57.202Z,64.60
2018-09-24T01:56:24.693Z,64.70
2018-09-24T01:58:52.189Z,64.60
2018-09-24T02:01:19.699Z,65.70
2018-09-24T02:03:47.160Z,64.80
2018-09-24T02:06:14.536Z,64.60
2018-09-24T02:08:43.108Z,64.40
2018-09-24T02:11:10.524Z,65.00
2018-09-24T02:13:45.035Z,65.50
2018-09-24T02:16:12.436Z,65.80
2018-09-24T02:18:39.909Z,66.50
2018-09-24T02:21:07.348Z,66.60
2018-09-24T02:23:34.722Z,66.30
2018-09-24T02:26:02.195Z,66.00
2018-09-24T02:28:29.590Z,65.90
2018-09-24T02:30:57.006Z,65.90
2018-09-24T02:33:24.478Z,66.00
2018-09-24T02:35:51.917Z,66.10
2018-09-24T02:38:19.635Z,67.20
2018-09-24T02:40:47.102Z,66.70
2018-09-24T02:43:20.952Z,67.20
2018-09-24T02:45:48.334Z,67.60
2018-09-24T02:48:15.815Z,67.40
2018-09-24T02:50:43.266Z,67.60
2018-09-24T02:53:10.651Z,67.60
2018-09-24T02:55:38.062Z,67.40
2018-09-24T02:58:05.519Z,67.40
2018-09-24T03:00:32.972Z,66.60
2018-09-24T03:03:05.296Z,67.10
2018-09-24T03:05:32.760Z,67.10
2018-09-24T03:08:00.430Z,67.20
2018-09-24T03:10:27.850Z,67.30
2018-09-24T03:12:55.333Z,67.10
2018-09-24T03:15:22.887Z,66.80
2018-09-24T03:17:50.342Z,67.10
2018-09-24T03:20:17.857Z,66.80
2018-09-24T03:22:45.254Z,66.50
2018-09-24T03:25:16.868Z,67.00
2018-09-24T03:27:44.568Z,67.50
2018-09-24T03:30:11.957Z,68.30
2018-09-24T03:32:39.390Z,68.40
2018-09-24T03:35:06.904Z,68.00
2018-09-24T03:37:34.274Z,68.20
2018-09-24T03:40:01.634Z,67.40
2018-09-24T03:42:29.094Z,67.10
2018-09-24T03:44:56.521Z,68.30
2018-09-24T03:47:23.924Z,67.00
2018-09-24T03:49:51.405Z,67.30
2018-09-24T03:52:18.857Z,67.30
2018-09-24T03:54:46.327Z,67.90
2018-09-24T03:57:13.711Z,67.80
2018-09-24T03:59:41.068Z,68.20
2018-09-24T04:02:08.489Z,68.40
2018-09-24T04:04:41.568Z,67.80
2018-09-24T04:07:14.697Z,67.90
2018-09-24T04:09:47.956Z,66.70
2018-09-24T04:12:21.122Z,66.80
2018-09-24T04:14:54.226Z,66.90
2018-09-24T04:17:27.385Z,66.70
2018-09-24T04:20:00.576Z,66.60
2018-09-24T04:22:33.530Z,66.40
2018-09-24T04:25:06.846Z,66.70
2018-09-24T04:27:40.078Z,67.00
2018-09-24T04:30:12.964Z,66.90
2018-09-24T04:32:45.896Z,67.30
2018-09-24T04:35:18.834Z,67.40
2018-09-24T04:37:51.795Z,68.60
2018-09-24T04:40:24.990Z,69.00
2018-09-24T04:42:58.268Z,68.90
2018-09-24T04:45:31.453Z,68.20
2018-09-24T04:48:04.618Z,68.00
2018-09-24T04:50:44.656Z,68.40
2018-09-24T04:53:17.748Z,69.20
2018-09-24T04:55:50.955Z,68.20
2018-09-24T04:58:24.080Z,68.40
2018-09-24T05:00:57.352Z,68.40
2018-09-24T05:03:30.495Z,69.30
2018-09-24T05:06:03.409Z,69.20
2018-09-24T05:08:36.331Z,68.70
2018-09-24T05:11:09.474Z,68.80
2018-09-24T05:13:42.552Z,68.90
2018-09-24T05:16:15.766Z,68.50
2018-09-24T05:18:48.790Z,68.40
2018-09-24T05:21:21.973Z,68.00
2018-09-24T05:23:54.963Z,67.80
2018-09-24T05:26:27.910Z,67.50
2018-09-24T05:29:00.866Z,67.30
2018-09-24T05:31:33.790Z,67.80
2018-09-24T05:34:07.052Z,68.00
2018-09-24T05:36:40.209Z,67.80
2018-09-24T05:39:13.733Z,68.30
2018-09-24T05:41:47.240Z,68.50
2018-09-24T05:44:20.363Z,68.20
2018-09-24T05:46:53.386Z,68.00
2018-09-24T05:49:26.625Z,68.30
2018-09-24T05:51:59.588Z,68.90
2018-09-24T05:54:32.516Z,69.20
2018-09-24T05:57:05.704Z,68.40
2018-09-24T05:59:38.619Z,68.30
2018-09-24T06:02:11.885Z,68.00
2018-09-24T06:04:45.021Z,67.60
2018-09-24T06:07:18.092Z,68.00
2018-09-24T06:09:50.991Z,68.00
2018-09-24T06:12:24.237Z,67.90
2018-09-24T06:14:57.436Z,68.00
2018-09-24T06:17:30.520Z,68.70
2018-09-24T06:20:03.425Z,69.00
2018-09-24T06:22:36.353Z,70.10
2018-09-24T06:25:09.488Z,70.40
2018-09-24T06:27:42.793Z,70.20
2018-09-24T06:30:15.960Z,69.90
2018-09-24T06:32:49.140Z,69.70
2018-09-24T06:35:22.124Z,69.40
2018-09-24T06:37:54.994Z,69.20
2018-09-24T06:40:28.128Z,69.30
2018-09-24T06:43:01.237Z,69.80
2018-09-24T06:45:34.335Z,68.70
2018-09-24T06:48:07.573Z,69.60
2018-09-24T06:50:40.737Z,69.50
2018-09-24T06:53:13.840Z,69.40
2018-09-24T06:55:47.076Z,69.90
2018-09-24T06:58:20.119Z,70.00
2018-09-24T07:00:53.343Z,69.80
2018-09-24T07:03:26.356Z,70.20
2018-09-24T07:05:59.260Z,70.00
2018-09-24T07:08:32.513Z,69.30
2018-09-24T07:11:05.705Z,70.40
2018-09-24T07:13:38.904Z,68.70
2018-09-24T07:16:12.267Z,68.90
2018-09-24T07:18:45.233Z,68.70
2018-09-24T07:21:18.261Z,70.00
2018-09-24T07:23:51.392Z,70.50
2018-09-24T07:26:24.562Z,69.70
2018-09-24T07:28:57.539Z,67.90
2018-09-24T07:31:30.733Z,67.60
2018-09-24T07:34:03.776Z,67.80
2018-09-24T07:36:36.938Z,68.40
2018-09-24T07:39:13.481Z,69.80
2018-09-24T07:41:46.916Z,68.30
2018-09-24T07:44:20.138Z,69.70
2018-09-24T07:46:53.346Z,67.60
2018-09-24T07:49:26.552Z,67.90
2018-09-24T07:51:59.745Z,68.30
2018-09-24T07:54:32.922Z,66.60
2018-09-24T07:57:06.045Z,66.20
2018-09-24T07:59:39.267Z,66.00
2018-09-24T08:02:12.401Z,65.50
2018-09-24T08:04:45.573Z,67.60
2018-09-24T08:07:18.833Z,66.80
2018-09-24T08:09:52.025Z,68.00
2018-09-24T08:12:25.306Z,70.00
2018-09-24T08:14:58.256Z,67.10
2018-09-24T08:17:31.455Z,64.70
2018-09-24T08:20:04.470Z,64.20
2018-09-24T08:22:37.676Z,65.70
2018-09-24T08:25:10.681Z,65.00
2018-09-24T08:27:43.722Z,65.00
2018-09-24T08:30:16.691Z,63.80
2018-09-24T08:32:49.957Z,63.50
2018-09-24T08:35:23.077Z,64.30
2018-09-24T08:37:56.315Z,64.50
2018-09-24T08:40:29.221Z,64.30
2018-09-24T08:43:02.441Z,64.60
2018-09-24T08:45:35.598Z,64.40
2018-09-24T08:48:08.543Z,61.80
2018-09-24T08:50:48.358Z,62.80
2018-09-24T08:53:21.605Z,61.50
2018-09-24T08:55:54.745Z,62.10
2018-09-24T08:58:27.753Z,62.30
2018-09-24T09:01:00.948Z,63.00
2018-09-24T09:03:33.900Z,60.50
2018-09-24T09:06:07.120Z,58.80
2018-09-24T09:08:40.017Z,58.00
2018-09-24T09:11:12.964Z,60.10
2018-09-24T09:13:46.267Z,60.20
2018-09-24T09:16:19.512Z,59.30
2018-09-24T09:18:52.457Z,59.50
2018-09-24T09:21:25.644Z,63.00
2018-09-24T09:23:58.820Z,64.70
2018-09-24T09:26:32.006Z,59.60
2018-09-24T09:29:05.188Z,57.70
2018-09-24T09:31:38.264Z,58.10
2018-09-24T09:34:11.714Z,58.40
2018-09-24T09:36:44.880Z,57.10
2018-09-24T09:39:17.809Z,57.70
2018-09-24T09:41:51.000Z,58.00
2018-09-24T09:44:24.248Z,56.90
2018-09-24T09:46:57.284Z,57.10
2018-09-24T09:49:30.204Z,58.30
2018-09-24T09:52:03.436Z,57.00
2018-09-24T09:54:36.444Z,55.80
2018-09-24T09:57:09.668Z,56.50
2018-09-24T09:59:42.867Z,57.30
2018-09-24T10:02:15.898Z,57.20
2018-09-24T10:04:49.115Z,54.20
2018-09-24T10:07:22.149Z,55.30
2018-09-24T10:09:55.322Z,53.40
2018-09-24T10:12:28.413Z,54.00
2018-09-24T10:15:01.732Z,52.80
2018-09-24T10:17:34.780Z,54.10
2018-09-24T10:20:14.764Z,48.20
2018-09-24T10:22:47.966Z,50.40
2018-09-24T10:25:21.061Z,50.20
2018-09-24T10:27:54.393Z,49.10
2018-09-24T10:30:27.506Z,50.90
2018-09-24T10:33:00.760Z,52.00
2018-09-24T10:35:34.012Z,51.70
2018-09-24T10:38:07.064Z,53.80
2018-09-24T10:40:40.196Z,52.70
2018-09-24T10:43:13.390Z,50.70
2018-09-24T10:45:46.653Z,50.20
2018-09-24T10:48:19.595Z,47.40
2018-09-24T10:50:52.865Z,47.70
2018-09-24T10:53:25.951Z,48.10
2018-09-24T10:55:59.105Z,47.60
2018-09-24T10:58:32.237Z,46.80
2018-09-24T11:01:05.225Z,46.20
2018-09-24T11:03:38.146Z,45.40
2018-09-24T11:06:11.244Z,46.80
2018-09-24T11:08:44.162Z,49.50
2018-09-24T11:11:17.347Z,46.30
2018-09-24T11:13:50.332Z,46.50
2018-09-24T11:16:23.630Z,44.20
2018-09-24T11:18:56.570Z,41.10
2018-09-24T11:21:29.839Z,42.00
2018-09-24T11:24:03.018Z,41.70
2018-09-24T11:26:35.998Z,49.80
2018-09-24T11:29:09.004Z,45.50
2018-09-24T11:31:42.003Z,48.30
2018-09-24T11:34:15.250Z,47.30
2018-09-24T11:36:48.322Z,43.80
2018-09-24T11:39:21.540Z,42.10
2018-09-24T11:41:54.501Z,42.80
2018-09-24T11:44:27.672Z,42.30
2018-09-24T11:47:00.734Z,43.10
2018-09-24T11:49:33.652Z,44.60
2018-09-24T11:52:06.637Z,42.70
2018-09-24T11:54:46.745Z,44.50
2018-09-24T11:57:19.709Z,44.80
2018-09-24T11:59:52.917Z,41.10
2018-09-24T12:02:26.185Z,42.40
2018-09-24T12:04:59.290Z,42.60
2018-09-24T12:07:32.481Z,41.70
2018-09-24T12:10:05.899Z,43.30
2018-09-24T12:12:38.998Z,44.00
2018-09-24T12:15:12.169Z,49.40
2018-09-24T12:17:45.154Z,42.30
2018-09-24T12:20:18.383Z,40.00
2018-09-24T12:22:51.372Z,39.80
2018-09-24T12:25:24.355Z,39.60
2018-09-24T12:27:57.563Z,41.60
2018-09-24T12:30:30.558Z,42.40
2018-09-24T12:33:03.725Z,40.10
2018-09-24T12:35:36.726Z,38.90
2018-09-24T12:38:09.956Z,40.10
2018-09-24T12:40:43.238Z,39.30
2018-09-24T12:43:16.395Z,43.40
2018-09-24T12:45:49.574Z,43.70
2018-09-24T12:48:22.863Z,38.50
2018-09-24T12:50:56.102Z,34.50
2018-09-24T12:53:29.305Z,36.00
2018-09-24T12:56:02.405Z,37.40
2018-09-24T12:58:35.662Z,35.60
2018-09-24T13:01:08.874Z,37.50
2018-09-24T13:03:42.084Z,37.30
2018-09-24T13:06:15.172Z,36.40
2018-09-24T13:08:48.170Z,38.70
2018-09-24T13:11:21.313Z,37.90
2018-09-24T13:13:54.450Z,37.90
2018-09-24T13:16:27.624Z,35.90
2018-09-24T13:19:00.760Z,38.20
2018-09-24T13:21:33.906Z,37.30
2018-09-24T13:24:07.047Z,37.90
2018-09-24T13:26:40.023Z,36.70
2018-09-24T13:29:13.178Z,37.60
2018-09-24T13:31:46.096Z,38.30
2018-09-24T13:34:19.100Z,37.10
2018-09-24T13:36:52.299Z,36.90
2018-09-24T13:39:25.438Z,37.30
2018-09-24T13:42:05.236Z,37.70
2018-09-24T13:44:38.127Z,38.10
2018-09-24T13:47:11.305Z,37.30
2018-09-24T13:49:44.556Z,36.30
2018-09-24T13:52:17.516Z,35.30
2018-09-24T13:54:50.680Z,36.90
2018-09-24T13:57:23.648Z,37.50
2018-09-24T13:59:56.613Z,37.60
2018-09-24T14:02:29.842Z,36.40
2018-09-24T14:05:03.022Z,36.90
2018-09-24T14:07:36.008Z,39.40
2018-09-24T14:10:09.255Z,38.70
2018-09-24T14:12:42.482Z,37.50
2018-09-24T14:15:15.713Z,35.30
2018-09-24T14:17:48.850Z,40.10
2018-09-24T14:20:22.037Z,36.20
2018-09-24T14:22:55.227Z,37.00
2018-09-24T14:25:28.557Z,36.60
2018-09-24T14:28:01.721Z,36.70
2018-09-24T14:30:34.885Z,37.00
2018-09-24T14:33:08.031Z,35.90
2018-09-24T14:35:41.100Z,37.30
2018-09-24T14:38:14.110Z,36.50
2018-09-24T14:40:47.346Z,37.60
2018-09-24T14:43:20.287Z,38.90
2018-09-24T14:45:53.490Z,38.00
2018-09-24T14:48:26.723Z,37.70
2018-09-24T14:50:59.929Z,36.60
2018-09-24T14:53:33.216Z,33.50
2018-09-24T14:56:06.507Z,35.30
2018-09-24T14:58:39.519Z,34.10
2018-09-24T15:01:12.755Z,34.50
2018-09-24T15:03:45.905Z,35.30
2018-09-24T15:06:18.786Z,36.10
2018-09-24T15:08:51.924Z,35.70
2018-09-24T15:11:25.087Z,34.70
2018-09-24T15:13:58.212Z,34.40
2018-09-24T15:16:31.244Z,35.70
2018-09-24T15:19:04.391Z,36.20
2018-09-24T15:21:37.321Z,35.60
2018-09-24T15:24:10.613Z,36.60
2018-09-24T15:26:43.812Z,36.00
2018-09-24T15:29:17.020Z,35.60
2018-09-24T15:31:49.896Z,35.10
2018-09-24T15:34:30.101Z,36.70
2018-09-24T15:37:03.252Z,37.90
2018-09-24T15:39:36.520Z,37.60
2018-09-24T15:42:09.651Z,36.50
2018-09-24T15:44:42.522Z,36.30
2018-09-24T15:47:15.646Z,36.00
2018-09-24T15:49:48.611Z,35.90
2018-09-24T15:52:21.828Z,37.70
2018-09-24T15:54:55.036Z,37.00
2018-09-24T15:57:28.300Z,36.10
2018-09-24T16:00:01.481Z,35.10
2018-09-24T16:02:35.070Z,35.50
2018-09-24T16:05:08.278Z,36.00
2018-09-24T16:07:41.365Z,36.90
2018-09-24T16:10:14.405Z,36.40
2018-09-24T16:12:47.660Z,37.60
2018-09-24T16:15:20.836Z,37.10
2018-09-24T16:17:53.946Z,38.10
2018-09-24T16:20:27.172Z,38.80
2018-09-24T16:23:00.327Z,38.40
2018-09-24T16:25:33.371Z,39.00
2018-09-24T16:28:06.311Z,39.30
2018-09-24T16:30:39.487Z,38.50
2018-09-24T16:33:12.721Z,38.70
2018-09-24T16:35:45.711Z,38.60
2018-09-24T16:38:18.912Z,37.90
2018-09-24T16:40:52.051Z,38.70
2018-09-24T16:43:25.060Z,38.70
2018-09-24T16:45:58.208Z,38.80
2018-09-24T16:48:31.540Z,38.50
2018-09-24T16:51:04.568Z,39.70
2018-09-24T16:53:37.914Z,41.00
2018-09-24T16:56:11.174Z,40.60
2018-09-24T16:58:44.276Z,42.10
2018-09-24T17:01:17.444Z,42.80
2018-09-24T17:03:50.663Z,44.20
2018-09-24T17:06:23.872Z,45.20
2018-09-24T17:08:56.923Z,44.90
2018-09-24T17:11:30.106Z,44.30
2018-09-24T17:14:03.120Z,46.00
2018-09-24T17:16:36.309Z,43.50
2018-09-24T17:19:09.488Z,44.40
2018-09-24T17:21:49.566Z,45.00
2018-09-24T17:24:22.834Z,46.10
2018-09-24T17:26:56.020Z,47.30
2018-09-24T17:29:29.259Z,47.20
2018-09-24T17:32:02.776Z,47.10
2018-09-24T17:34:36.061Z,47.80
2018-09-24T17:37:10.227Z,47.30
2018-09-24T17:39:43.174Z,49.20
2018-09-24T17:42:16.300Z,49.50
2018-09-24T17:44:49.404Z,49.30
2018-09-24T17:47:22.346Z,49.40
2018-09-24T17:49:55.528Z,49.20
2018-09-24T17:52:28.680Z,49.60
2018-09-24T17:55:01.738Z,49.00
2018-09-24T17:57:34.894Z,49.80
2018-09-24T18:00:08.082Z,50.10
2018-09-24T18:02:41.208Z,50.10
2018-09-24T18:05:14.634Z,50.60
2018-09-24T18:07:47.885Z,50.80
2018-09-24T18:10:20.974Z,50.30
2018-09-24T18:12:54.134Z,51.00
2018-09-24T18:15:27.329Z,50.10
2018-09-24T18:18:00.288Z,49.00
2018-09-24T18:20:33.512Z,49.50
2018-09-24T18:23:06.506Z,50.10
2018-09-24T18:25:39.514Z,49.40
2018-09-24T18:28:12.471Z,49.00
2018-09-24T18:30:45.536Z,49.30
2018-09-24T18:33:18.792Z,49.40
2018-09-24T18:35:51.738Z,48.80
2018-09-24T18:38:25.034Z,50.50
2018-09-24T18:40:58.227Z,50.80
2018-09-24T18:43:31.394Z,51.20
2018-09-24T18:46:04.554Z,50.10
2018-09-24T18:48:37.511Z,50.00
2018-09-24T18:51:10.772Z,50.40
2018-09-24T18:53:43.952Z,50.80
2018-09-24T18:56:16.924Z,50.20
2018-09-24T18:58:50.149Z,50.40
2018-09-24T19:01:23.311Z,49.90
2018-09-24T19:03:56.420Z,49.70
2018-09-24T19:06:29.625Z,50.30
2018-09-24T19:09:02.596Z,51.10
2018-09-24T19:11:35.798Z,51.20
2018-09-24T19:14:09.058Z,51.00
2018-09-24T19:16:42.333Z,51.50
2018-09-24T19:19:15.578Z,50.40
2018-09-24T19:21:48.556Z,52.00
2018-09-24T19:24:21.712Z,52.00
2018-09-24T19:26:54.999Z,51.80
2018-09-24T19:29:28.289Z,52.80
2018-09-24T19:32:01.258Z,53.00
2018-09-24T19:34:34.212Z,53.90
2018-09-24T19:37:07.342Z,53.80
2018-09-24T19:39:40.235Z,53.50
2018-09-24T19:42:13.195Z,54.10
2018-09-24T19:44:46.295Z,54.50
2018-09-24T19:47:19.467Z,54.70
2018-09-24T19:49:52.443Z,54.70
2018-09-24T19:52:25.689Z,54.80
2018-09-24T19:54:58.659Z,54.20
2018-09-24T19:57:31.871Z,54.00
2018-09-24T20:00:05.012Z,54.10
2018-09-24T20:02:38.267Z,53.90
2018-09-24T20:05:11.502Z,53.00
2018-09-24T20:07:44.664Z,52.90
2018-09-24T20:10:17.804Z,54.10
2018-09-24T20:12:50.931Z,54.20
2018-09-24T20:15:24.192Z,54.90
2018-09-24T20:17:57.409Z,55.20
2018-09-24T20:20:30.659Z,56.00
2018-09-24T20:23:03.871Z,55.80
2018-09-24T20:25:37.213Z,56.10
2018-09-24T20:28:10.116Z,56.60
2018-09-24T20:30:43.068Z,56.00
2018-09-24T20:33:16.100Z,56.70
2018-09-24T20:35:49.306Z,55.50
2018-09-24T20:38:22.493Z,55.80
2018-09-24T20:40:55.580Z,56.60
2018-09-24T20:43:28.834Z,56.90
2018-09-24T20:46:02.088Z,57.10
2018-09-24T20:48:35.306Z,57.90
2018-09-24T20:51:08.438Z,58.20
2018-09-24T20:53:41.567Z,57.80
2018-09-24T20:56:16.219Z,57.70
2018-09-24T20:58:49.470Z,58.20
2018-09-24T21:01:22.576Z,58.00
2018-09-24T21:03:55.600Z,57.90
2018-09-24T21:06:28.752Z,58.30
2018-09-24T21:09:01.720Z,58.20
2018-09-24T21:11:34.905Z,59.00
2018-09-24T21:14:08.460Z,59.40
2018-09-24T21:16:41.723Z,58.20
2018-09-24T21:19:14.925Z,57.30
2018-09-24T21:21:48.135Z,58.40
2018-09-24T21:24:21.050Z,59.00
2018-09-24T21:26:54.203Z,60.10
2018-09-24T21:29:27.151Z,61.10
2018-09-24T21:32:00.306Z,61.50
2018-09-24T21:34:33.472Z,59.80
2018-09-24T21:37:06.596Z,59.60
2018-09-24T21:39:46.475Z,60.80
2018-09-24T21:42:19.360Z,61.60
2018-09-24T21:44:52.703Z,61.10
2018-09-24T21:47:25.768Z,61.70
2018-09-24T21:49:58.943Z,61.10
2018-09-24T21:52:32.032Z,60.90
2018-09-24T21:55:05.060Z,61.40
2018-09-24T21:57:38.217Z,60.60
2018-09-24T22:00:11.662Z,60.20
2018-09-24T22:02:44.641Z,60.20
2018-09-24T22:05:24.512Z,60.20
2018-09-24T22:07:57.677Z,59.70
2018-09-24T22:10:30.874Z,60.00
2018-09-24T22:13:04.133Z,60.50
2018-09-24T22:15:37.412Z,59.60
2018-09-24T22:18:10.587Z,59.70
2018-09-24T22:20:43.841Z,60.20
2018-09-24T22:23:16.832Z,60.90
2018-09-24T22:25:49.923Z,61.40
2018-09-24T22:28:23.206Z,61.70
2018-09-24T22:30:56.365Z,61.90
2018-09-24T22:33:29.570Z,61.40
2018-09-24T22:36:02.492Z,61.60
2018-09-24T22:38:35.720Z,61.60
2018-09-24T22:41:08.952Z,61.90
2018-09-24T22:43:42.122Z,62.10
2018-09-24T22:46:15.294Z,62.00
2018-09-24T22:48:48.373Z,61.50
2018-09-24T22:51:21.625Z,61.10
2018-09-24T22:53:54.628Z,61.20
2018-09-24T22:56:27.537Z,61.20
2018-09-24T22:59:00.480Z,61.10
2018-09-24T23:01:33.637Z,60.90
2018-09-24T23:04:06.750Z,60.70
2018-09-24T23:06:39.985Z,60.90
2018-09-24T23:09:13.893Z,60.60
2018-09-24T23:11:47.215Z,60.60
2018-09-24T23:14:20.417Z,60.50
2018-09-24T23:16:53.596Z,61.10
2018-09-24T23:19:26.777Z,61.30
2018-09-24T23:21:59.633Z,61.30
2018-09-24T23:24:32.837Z,61.30
2018-09-24T23:27:06.064Z,61.50
2018-09-24T23:29:39.234Z,61.50
2018-09-24T23:32:12.450Z,62.00
2018-09-24T23:34:45.664Z,61.60
2018-09-24T23:37:18.816Z,62.00
2018-09-24T23:39:52.003Z,62.00
2018-09-24T23:42:25.316Z,62.10
2018-09-24T23:44:58.556Z,61.70
2018-09-24T23:47:31.630Z,61.60
2018-09-24T23:50:04.744Z,62.30
2018-09-24T23:52:37.937Z,62.30
2018-09-24T23:55:11.070Z,62.60
2018-09-24T23:57:44.079Z,62.60
